sensor_id;sensor_type;location;lat;lon;timestamp;pressure;altitude;pressure_sealevel;temperature;humidity
10606;BME280;5350;42.698;23.148;2023-04-12T00:00:15;92820.47;;;8.65;100.00
10606;BME280;5350;42.698;23.148;2023-04-12T00:02:42;92817.38;;;8.63;100.00
10606;BME280;5350;42.698;23.148;2023-04-12T00:05:09;92825.34;;;8.58;100.00
10606;BME280;5350;42.698;23.148;2023-04-12T00:07:38;92815.06;;;8.48;100.00
10606;BME280;5350;42.698;23.148;2023-04-12T00:10:06;92813.63;;;8.42;100.00
10606;BME280;5350;42.698;23.148;2023-04-12T00:12:34;92817.44;;;8.36;100.00
10606;BME280;5350;42.698;23.148;2023-04-12T00:15:00;92807.06;;;8.31;100.00
10606;BME280;5350;42.698;23.148;2023-04-12T00:17:27;92799.75;;;8.28;100.00
10606;BME280;5350;42.698;23.148;2023-04-12T00:19:54;92797.25;;;8.23;100.00
10606;BME280;5350;42.698;23.148;2023-04-12T00:22:21;92801.34;;;8.29;100.00
10606;BME280;5350;42.698;23.148;2023-04-12T00:24:49;92805.63;;;8.25;100.00
10606;BME280;5350;42.698;23.148;2023-04-12T00:27:16;92803.84;;;8.34;100.00
10606;BME280;5350;42.698;23.148;2023-04-12T00:29:43;92793.94;;;8.31;100.00
10606;BME280;5350;42.698;23.148;2023-04-12T00:32:09;92789.47;;;8.18;100.00
10606;BME280;5350;42.698;23.148;2023-04-12T00:34:36;92798.72;;;8.29;100.00
10606;BME280;5350;42.698;23.148;2023-04-12T00:37:03;92799.28;;;8.26;100.00
10606;BME280;5350;42.698;23.148;2023-04-12T00:39:30;92794.13;;;8.21;100.00
10606;BME280;5350;42.698;23.148;2023-04-12T00:42:02;92789.97;;;8.20;100.00
10606;BME280;5350;42.698;23.148;2023-04-12T00:44:29;92787.25;;;8.12;100.00
10606;BME280;5350;42.698;23.148;2023-04-12T00:46:57;92783.28;;;8.14;100.00
10606;BME280;5350;42.698;23.148;2023-04-12T00:49:24;92778.81;;;8.15;100.00
10606;BME280;5350;42.698;23.148;2023-04-12T00:51:54;92778.81;;;8.15;100.00
10606;BME280;5350;42.698;23.148;2023-04-12T00:54:20;92783.88;;;8.11;100.00
10606;BME280;5350;42.698;23.148;2023-04-12T00:56:47;92783.75;;;8.16;100.00
10606;BME280;5350;42.698;23.148;2023-04-12T00:59:16;92783.34;;;8.23;100.00
10606;BME280;5350;42.698;23.148;2023-04-12T01:01:43;92773.88;;;8.27;100.00
10606;BME280;5350;42.698;23.148;2023-04-12T01:04:09;92777.19;;;8.32;100.00
10606;BME280;5350;42.698;23.148;2023-04-12T01:06:49;92779.19;;;8.35;100.00
10606;BME280;5350;42.698;23.148;2023-04-12T01:09:24;92773.78;;;8.32;100.00
10606;BME280;5350;42.698;23.148;2023-04-12T01:12:01;92766.38;;;8.20;100.00
10606;BME280;5350;42.698;23.148;2023-04-12T01:14:35;92773.19;;;8.07;100.00
10606;BME280;5350;42.698;23.148;2023-04-12T01:17:06;92777.06;;;8.10;100.00
10606;BME280;5350;42.698;23.148;2023-04-12T01:19:47;92761.06;;;8.12;100.00
10606;BME280;5350;42.698;23.148;2023-04-12T01:22:29;92765.53;;;8.11;100.00
10606;BME280;5350;42.698;23.148;2023-04-12T01:25:10;92762.44;;;8.09;100.00
10606;BME280;5350;42.698;23.148;2023-04-12T01:27:52;92764.97;;;8.00;100.00
10606;BME280;5350;42.698;23.148;2023-04-12T01:30:20;92765.53;;;8.11;100.00
10606;BME280;5350;42.698;23.148;2023-04-12T01:32:49;92767.47;;;8.05;100.00
10606;BME280;5350;42.698;23.148;2023-04-12T01:35:18;92771.66;;;8.06;100.00
10606;BME280;5350;42.698;23.148;2023-04-12T01:37:46;92764.28;;;8.08;100.00
10606;BME280;5350;42.698;23.148;2023-04-12T01:40:13;92765.63;;;8.06;100.00
10606;BME280;5350;42.698;23.148;2023-04-12T01:42:40;92763.72;;;7.98;100.00
10606;BME280;5350;42.698;23.148;2023-04-12T01:45:09;92755.25;;;8.01;100.00
10606;BME280;5350;42.698;23.148;2023-04-12T01:47:36;92758.00;;;7.96;100.00
10606;BME280;5350;42.698;23.148;2023-04-12T01:50:13;92755.56;;;7.99;100.00
10606;BME280;5350;42.698;23.148;2023-04-12T01:52:46;92758.09;;;7.91;100.00
10606;BME280;5350;42.698;23.148;2023-04-12T01:55:15;92753.22;;;7.98;100.00
10606;BME280;5350;42.698;23.148;2023-04-12T01:57:47;92749.75;;;7.89;100.00
10606;BME280;5350;42.698;23.148;2023-04-12T02:00:17;92751.88;;;8.00;100.00
10606;BME280;5350;42.698;23.148;2023-04-12T02:02:45;92748.47;;;8.00;100.00
10606;BME280;5350;42.698;23.148;2023-04-12T02:05:12;92753.44;;;7.88;100.00
10606;BME280;5350;42.698;23.148;2023-04-12T02:07:40;92749.38;;;7.82;100.00
10606;BME280;5350;42.698;23.148;2023-04-12T02:10:12;92753.06;;;7.81;100.00
10606;BME280;5350;42.698;23.148;2023-04-12T02:12:38;92756.94;;;7.83;100.00
10606;BME280;5350;42.698;23.148;2023-04-12T02:15:06;92749.06;;;7.70;100.00
10606;BME280;5350;42.698;23.148;2023-04-12T02:17:34;92750.34;;;7.72;100.00
10606;BME280;5350;42.698;23.148;2023-04-12T02:20:01;92741.53;;;7.68;100.00
10606;BME280;5350;42.698;23.148;2023-04-12T02:22:31;92739.09;;;7.72;100.00
10606;BME280;5350;42.698;23.148;2023-04-12T02:24:58;92747.06;;;7.67;100.00
10606;BME280;5350;42.698;23.148;2023-04-12T02:27:25;92748.03;;;7.71;100.00
10606;BME280;5350;42.698;23.148;2023-04-12T02:29:52;92750.72;;;7.79;100.00
10606;BME280;5350;42.698;23.148;2023-04-12T02:32:19;92745.88;;;7.86;100.00
10606;BME280;5350;42.698;23.148;2023-04-12T02:34:47;92756.53;;;7.90;100.00
10606;BME280;5350;42.698;23.148;2023-04-12T02:37:15;92733.47;;;7.92;100.00
10606;BME280;5350;42.698;23.148;2023-04-12T02:39:42;92723.56;;;7.89;100.00
10606;BME280;5350;42.698;23.148;2023-04-12T02:42:09;92723.34;;;7.99;100.00
10606;BME280;5350;42.698;23.148;2023-04-12T02:44:36;92715.31;;;7.95;100.00
10606;BME280;5350;42.698;23.148;2023-04-12T02:47:03;92738.38;;;8.07;100.00
10606;BME280;5350;42.698;23.148;2023-04-12T02:49:29;92730.41;;;8.12;100.00
10606;BME280;5350;42.698;23.148;2023-04-12T02:51:57;92723.63;;;8.11;100.00
10606;BME280;5350;42.698;23.148;2023-04-12T02:54:24;92726.59;;;8.18;100.00
10606;BME280;5350;42.698;23.148;2023-04-12T02:56:51;92727.38;;;8.19;100.00
10606;BME280;5350;42.698;23.148;2023-04-12T02:59:18;92729.13;;;8.23;100.00
10606;BME280;5350;42.698;23.148;2023-04-12T03:01:44;92737.66;;;8.29;100.00
10606;BME280;5350;42.698;23.148;2023-04-12T03:04:11;92728.16;;;8.33;100.00
10606;BME280;5350;42.698;23.148;2023-04-12T03:06:38;92731.06;;;8.31;100.00
10606;BME280;5350;42.698;23.148;2023-04-12T03:09:19;92732.97;;;8.39;100.00
10606;BME280;5350;42.698;23.148;2023-04-12T03:11:46;92734.06;;;8.38;100.00
10606;BME280;5350;42.698;23.148;2023-04-12T03:14:12;92739.66;;;8.45;100.00
10606;BME280;5350;42.698;23.148;2023-04-12T03:16:39;92733.66;;;8.45;100.00
10606;BME280;5350;42.698;23.148;2023-04-12T03:19:06;92726.69;;;8.40;100.00
10606;BME280;5350;42.698;23.148;2023-04-12T03:21:32;92735.38;;;8.49;100.00
10606;BME280;5350;42.698;23.148;2023-04-12T03:23:59;92731.38;;;8.52;100.00
10606;BME280;5350;42.698;23.148;2023-04-12T03:26:27;92751.56;;;8.51;100.00
10606;BME280;5350;42.698;23.148;2023-04-12T03:28:57;92741.81;;;8.43;100.00
10606;BME280;5350;42.698;23.148;2023-04-12T03:31:24;92743.84;;;8.46;100.00
10606;BME280;5350;42.698;23.148;2023-04-12T03:33:51;92740.13;;;8.47;100.00
10606;BME280;5350;42.698;23.148;2023-04-12T03:36:18;92746.16;;;8.48;100.00
10606;BME280;5350;42.698;23.148;2023-04-12T03:38:45;92754.44;;;8.41;100.00
10606;BME280;5350;42.698;23.148;2023-04-12T03:41:12;92744.56;;;8.38;100.00
10606;BME280;5350;42.698;23.148;2023-04-12T03:43:40;92747.56;;;8.32;100.00
10606;BME280;5350;42.698;23.148;2023-04-12T03:46:07;92744.47;;;8.30;100.00
10606;BME280;5350;42.698;23.148;2023-04-12T03:48:35;92741.31;;;8.41;100.00
10606;BME280;5350;42.698;23.148;2023-04-12T03:51:02;92738.84;;;8.36;100.00
10606;BME280;5350;42.698;23.148;2023-04-12T03:53:31;92746.00;;;8.31;100.00
10606;BME280;5350;42.698;23.148;2023-04-12T03:55:58;92753.78;;;8.36;100.00
10606;BME280;5350;42.698;23.148;2023-04-12T03:58:25;92749.88;;;8.33;100.00
10606;BME280;5350;42.698;23.148;2023-04-12T04:00:53;92745.41;;;8.20;100.00
10606;BME280;5350;42.698;23.148;2023-04-12T04:03:20;92755.31;;;8.23;100.00
10606;BME280;5350;42.698;23.148;2023-04-12T04:05:51;92748.03;;;8.20;100.00
10606;BME280;5350;42.698;23.148;2023-04-12T04:08:18;92761.75;;;8.17;100.00
10606;BME280;5350;42.698;23.148;2023-04-12T04:10:45;92767.56;;;8.14;100.00
10606;BME280;5350;42.698;23.148;2023-04-12T04:13:11;92772.78;;;8.14;100.00
10606;BME280;5350;42.698;23.148;2023-04-12T04:15:38;92774.75;;;8.08;100.00
10606;BME280;5350;42.698;23.148;2023-04-12T04:18:06;92774.94;;;8.12;100.00
10606;BME280;5350;42.698;23.148;2023-04-12T04:20:33;92784.34;;;8.13;100.00
10606;BME280;5350;42.698;23.148;2023-04-12T04:22:59;92790.06;;;8.15;100.00
10606;BME280;5350;42.698;23.148;2023-04-12T04:25:26;92797.34;;;8.18;100.00
10606;BME280;5350;42.698;23.148;2023-04-12T04:27:55;92806.53;;;8.16;100.00
10606;BME280;5350;42.698;23.148;2023-04-12T04:30:23;92812.97;;;8.23;100.00
10606;BME280;5350;42.698;23.148;2023-04-12T04:32:50;92807.63;;;8.28;100.00
10606;BME280;5350;42.698;23.148;2023-04-12T04:35:19;92800.75;;;8.32;100.00
10606;BME280;5350;42.698;23.148;2023-04-12T04:37:46;92811.81;;;8.29;100.00
10606;BME280;5350;42.698;23.148;2023-04-12T04:40:13;92813.53;;;8.20;100.00
10606;BME280;5350;42.698;23.148;2023-04-12T04:42:39;92804.00;;;8.24;100.00
10606;BME280;5350;42.698;23.148;2023-04-12T04:45:08;92809.00;;;8.26;100.00
10606;BME280;5350;42.698;23.148;2023-04-12T04:47:39;92812.00;;;8.19;100.00
10606;BME280;5350;42.698;23.148;2023-04-12T04:50:06;92805.63;;;8.25;100.00
10606;BME280;5350;42.698;23.148;2023-04-12T04:52:35;92814.00;;;8.22;100.00
10606;BME280;5350;42.698;23.148;2023-04-12T04:55:04;92818.63;;;8.30;100.00
10606;BME280;5350;42.698;23.148;2023-04-12T04:57:30;92802.13;;;8.30;100.00
10606;BME280;5350;42.698;23.148;2023-04-12T04:59:57;92824.03;;;8.34;100.00
10606;BME280;5350;42.698;23.148;2023-04-12T05:02:24;92820.72;;;8.28;100.00
10606;BME280;5350;42.698;23.148;2023-04-12T05:04:51;92821.13;;;8.22;100.00
10606;BME280;5350;42.698;23.148;2023-04-12T05:07:20;92819.63;;;8.16;100.00
10606;BME280;5350;42.698;23.148;2023-04-12T05:09:49;92824.97;;;8.24;99.95
10606;BME280;5350;42.698;23.148;2023-04-12T05:12:15;92833.34;;;8.13;98.67
10606;BME280;5350;42.698;23.148;2023-04-12T05:14:42;92836.94;;;8.17;97.48
10606;BME280;5350;42.698;23.148;2023-04-12T05:17:09;92837.63;;;8.08;97.93
10606;BME280;5350;42.698;23.148;2023-04-12T05:19:36;92835.56;;;8.05;97.60
10606;BME280;5350;42.698;23.148;2023-04-12T05:22:02;92835.88;;;8.04;98.25
10606;BME280;5350;42.698;23.148;2023-04-12T05:24:29;92836.75;;;8.13;97.26
10606;BME280;5350;42.698;23.148;2023-04-12T05:26:57;92843.16;;;8.07;96.74
10606;BME280;5350;42.698;23.148;2023-04-12T05:29:24;92845.94;;;8.11;96.53
10606;BME280;5350;42.698;23.148;2023-04-12T05:31:50;92840.53;;;8.07;96.37
10606;BME280;5350;42.698;23.148;2023-04-12T05:34:17;92854.75;;;8.01;93.95
10606;BME280;5350;42.698;23.148;2023-04-12T05:36:44;92859.72;;;8.02;93.86
10606;BME280;5350;42.698;23.148;2023-04-12T05:39:10;92869.91;;;8.04;93.40
10606;BME280;5350;42.698;23.148;2023-04-12T05:41:37;92858.25;;;8.10;91.68
10606;BME280;5350;42.698;23.148;2023-04-12T05:44:05;92850.22;;;8.06;91.52
10606;BME280;5350;42.698;23.148;2023-04-12T05:46:32;92848.06;;;8.22;91.26
10606;BME280;5350;42.698;23.148;2023-04-12T05:48:58;92844.91;;;8.25;91.02
10606;BME280;5350;42.698;23.148;2023-04-12T05:51:25;92864.50;;;8.28;90.81
10606;BME280;5350;42.698;23.148;2023-04-12T05:53:52;92859.16;;;8.33;90.36
10606;BME280;5350;42.698;23.148;2023-04-12T05:56:18;92861.50;;;8.34;91.25
10606;BME280;5350;42.698;23.148;2023-04-12T05:58:45;92870.41;;;8.33;91.16
10606;BME280;5350;42.698;23.148;2023-04-12T06:01:14;92880.50;;;8.26;91.21
10606;BME280;5350;42.698;23.148;2023-04-12T06:03:43;92864.03;;;8.26;92.62
10606;BME280;5350;42.698;23.148;2023-04-12T06:06:10;92864.88;;;8.21;92.09
10606;BME280;5350;42.698;23.148;2023-04-12T06:08:37;92873.03;;;8.33;91.85
10606;BME280;5350;42.698;23.148;2023-04-12T06:11:04;92884.97;;;8.39;90.48
10606;BME280;5350;42.698;23.148;2023-04-12T06:13:32;92891.88;;;8.35;91.93
10606;BME280;5350;42.698;23.148;2023-04-12T06:15:59;92887.31;;;8.27;92.32
10606;BME280;5350;42.698;23.148;2023-04-12T06:18:27;92896.31;;;8.35;90.86
10606;BME280;5350;42.698;23.148;2023-04-12T06:20:53;92878.47;;;8.37;89.40
10606;BME280;5350;42.698;23.148;2023-04-12T06:23:20;92884.97;;;8.39;89.52
10606;BME280;5350;42.698;23.148;2023-04-12T06:25:47;92877.97;;;8.35;89.41
10606;BME280;5350;42.698;23.148;2023-04-12T06:28:14;92881.16;;;8.45;88.90
10606;BME280;5350;42.698;23.148;2023-04-12T06:30:41;92872.13;;;8.51;89.03
10606;BME280;5350;42.698;23.148;2023-04-12T06:33:11;92869.19;;;8.66;89.00
10606;BME280;5350;42.698;23.148;2023-04-12T06:35:39;92877.63;;;8.77;88.20
10606;BME280;5350;42.698;23.148;2023-04-12T06:38:05;92868.28;;;8.84;88.34
10606;BME280;5350;42.698;23.148;2023-04-12T06:40:32;92880.16;;;8.82;88.12
10606;BME280;5350;42.698;23.148;2023-04-12T06:42:59;92868.69;;;8.78;87.76
10606;BME280;5350;42.698;23.148;2023-04-12T06:45:26;92875.31;;;8.62;87.81
10606;BME280;5350;42.698;23.148;2023-04-12T06:47:52;92871.94;;;8.61;88.63
10606;BME280;5350;42.698;23.148;2023-04-12T06:50:21;92875.19;;;8.45;88.93
10606;BME280;5350;42.698;23.148;2023-04-12T06:52:49;92885.94;;;8.43;90.60
10606;BME280;5350;42.698;23.148;2023-04-12T06:55:16;92880.22;;;8.41;89.52
10606;BME280;5350;42.698;23.148;2023-04-12T06:57:43;92865.84;;;8.39;89.21
10606;BME280;5350;42.698;23.148;2023-04-12T07:00:11;92869.53;;;8.38;89.44
10606;BME280;5350;42.698;23.148;2023-04-12T07:02:38;92864.19;;;8.56;88.42
10606;BME280;5350;42.698;23.148;2023-04-12T07:05:05;92875.06;;;8.63;89.01
10606;BME280;5350;42.698;23.148;2023-04-12T07:07:32;92873.53;;;8.84;88.82
10606;BME280;5350;42.698;23.148;2023-04-12T07:10:00;92868.72;;;8.64;88.60
10606;BME280;5350;42.698;23.148;2023-04-12T07:12:28;92872.91;;;8.65;89.46
10606;BME280;5350;42.698;23.148;2023-04-12T07:14:56;92873.00;;;8.60;90.13
10606;BME280;5350;42.698;23.148;2023-04-12T07:17:23;92873.31;;;8.45;90.55
10606;BME280;5350;42.698;23.148;2023-04-12T07:19:51;92868.94;;;8.41;90.27
10606;BME280;5350;42.698;23.148;2023-04-12T07:22:18;92863.31;;;8.47;91.36
10606;BME280;5350;42.698;23.148;2023-04-12T07:24:45;92862.34;;;8.57;90.31
10606;BME280;5350;42.698;23.148;2023-04-12T07:27:13;92863.47;;;8.64;87.99
10606;BME280;5350;42.698;23.148;2023-04-12T07:29:40;92845.66;;;8.89;86.61
10606;BME280;5350;42.698;23.148;2023-04-12T07:32:07;92843.03;;;9.11;87.22
10606;BME280;5350;42.698;23.148;2023-04-12T07:34:34;92845.31;;;9.26;83.04
10606;BME280;5350;42.698;23.148;2023-04-12T07:37:01;92846.38;;;9.25;77.55
10606;BME280;5350;42.698;23.148;2023-04-12T07:39:28;92850.16;;;9.32;75.72
10606;BME280;5350;42.698;23.148;2023-04-12T07:41:56;92847.78;;;9.53;74.91
10606;BME280;5350;42.698;23.148;2023-04-12T07:44:24;92846.38;;;9.78;73.44
10606;BME280;5350;42.698;23.148;2023-04-12T07:46:51;92859.50;;;9.78;71.35
10606;BME280;5350;42.698;23.148;2023-04-12T07:49:17;92876.03;;;9.78;66.98
10606;BME280;5350;42.698;23.148;2023-04-12T07:51:44;92846.69;;;9.76;65.30
10606;BME280;5350;42.698;23.148;2023-04-12T07:54:11;92854.47;;;9.90;63.57
10606;BME280;5350;42.698;23.148;2023-04-12T07:56:38;92853.59;;;9.72;63.99
10606;BME280;5350;42.698;23.148;2023-04-12T07:59:05;92858.50;;;9.65;61.00
10606;BME280;5350;42.698;23.148;2023-04-12T08:01:33;92828.00;;;9.47;62.13
10606;BME280;5350;42.698;23.148;2023-04-12T08:04:00;92824.38;;;9.34;62.97
10606;BME280;5350;42.698;23.148;2023-04-12T08:06:27;92843.75;;;9.25;62.35
10606;BME280;5350;42.698;23.148;2023-04-12T08:08:54;92831.53;;;9.20;62.42
10606;BME280;5350;42.698;23.148;2023-04-12T08:11:20;92830.28;;;9.18;63.76
10606;BME280;5350;42.698;23.148;2023-04-12T08:13:47;92816.31;;;9.31;63.18
10606;BME280;5350;42.698;23.148;2023-04-12T08:16:14;92827.84;;;9.52;63.27
10606;BME280;5350;42.698;23.148;2023-04-12T08:18:42;92817.97;;;9.80;61.99
10606;BME280;5350;42.698;23.148;2023-04-12T08:21:09;92815.38;;;9.88;62.04
10606;BME280;5350;42.698;23.148;2023-04-12T08:23:36;92814.81;;;10.08;60.80
10606;BME280;5350;42.698;23.148;2023-04-12T08:26:02;92814.56;;;10.18;61.88
10606;BME280;5350;42.698;23.148;2023-04-12T08:28:29;92817.84;;;10.24;61.60
10606;BME280;5350;42.698;23.148;2023-04-12T08:30:57;92804.81;;;10.19;57.18
10606;BME280;5350;42.698;23.148;2023-04-12T08:33:23;92808.06;;;10.16;57.37
10606;BME280;5350;42.698;23.148;2023-04-12T08:35:52;92816.47;;;10.43;55.80
10606;BME280;5350;42.698;23.148;2023-04-12T08:38:19;92822.09;;;10.68;54.87
10606;BME280;5350;42.698;23.148;2023-04-12T08:40:46;92815.13;;;10.63;53.11
10606;BME280;5350;42.698;23.148;2023-04-12T08:43:14;92808.78;;;10.81;54.00
10606;BME280;5350;42.698;23.148;2023-04-12T08:45:42;92835.50;;;10.58;53.04
10606;BME280;5350;42.698;23.148;2023-04-12T08:48:09;92806.78;;;10.70;53.82
10606;BME280;5350;42.698;23.148;2023-04-12T08:50:36;92806.13;;;10.64;53.07
10606;BME280;5350;42.698;23.148;2023-04-12T08:53:04;92818.50;;;10.72;53.48
10606;BME280;5350;42.698;23.148;2023-04-12T08:55:31;92803.38;;;10.69;52.92
10606;BME280;5350;42.698;23.148;2023-04-12T08:57:58;92797.66;;;10.93;52.80
10606;BME280;5350;42.698;23.148;2023-04-12T09:00:25;92823.16;;;11.26;53.61
10606;BME280;5350;42.698;23.148;2023-04-12T09:02:52;92815.28;;;11.18;50.11
10606;BME280;5350;42.698;23.148;2023-04-12T09:05:19;92805.50;;;11.36;51.89
10606;BME280;5350;42.698;23.148;2023-04-12T09:07:47;92811.22;;;11.38;48.99
10606;BME280;5350;42.698;23.148;2023-04-12T09:10:29;92801.47;;;11.30;48.81
10606;BME280;5350;42.698;23.148;2023-04-12T09:12:56;92780.22;;;11.43;50.02
10606;BME280;5350;42.698;23.148;2023-04-12T09:15:23;92781.44;;;11.71;46.75
10606;BME280;5350;42.698;23.148;2023-04-12T09:18:02;92774.81;;;11.48;46.41
10606;BME280;5350;42.698;23.148;2023-04-12T09:20:29;92764.59;;;11.47;48.26
10606;BME280;5350;42.698;23.148;2023-04-12T09:22:57;92760.03;;;11.73;49.50
10606;BME280;5350;42.698;23.148;2023-04-12T09:25:37;92790.41;;;11.70;47.66
10606;BME280;5350;42.698;23.148;2023-04-12T09:28:17;92758.78;;;11.70;48.02
10606;BME280;5350;42.698;23.148;2023-04-12T09:30:45;92760.03;;;11.64;46.12
10606;BME280;5350;42.698;23.148;2023-04-12T09:33:16;92749.13;;;11.83;47.13
10606;BME280;5350;42.698;23.148;2023-04-12T09:35:43;92757.22;;;11.78;46.95
10606;BME280;5350;42.698;23.148;2023-04-12T09:38:10;92758.47;;;11.80;47.72
10606;BME280;5350;42.698;23.148;2023-04-12T09:40:38;92743.75;;;11.71;47.85
10606;BME280;5350;42.698;23.148;2023-04-12T09:43:06;92754.00;;;11.64;46.19
10606;BME280;5350;42.698;23.148;2023-04-12T09:45:34;92756.94;;;11.62;42.13
10606;BME280;5350;42.698;23.148;2023-04-12T09:48:03;92725.06;;;11.55;43.08
10606;BME280;5350;42.698;23.148;2023-04-12T09:50:30;92756.31;;;11.65;43.44
10606;BME280;5350;42.698;23.148;2023-04-12T09:52:58;92733.94;;;11.88;42.99
10606;BME280;5350;42.698;23.148;2023-04-12T09:55:27;92732.13;;;11.80;40.82
10606;BME280;5350;42.698;23.148;2023-04-12T09:57:55;92727.81;;;12.05;40.20
10606;BME280;5350;42.698;23.148;2023-04-12T10:00:23;92702.25;;;12.26;40.63
10606;BME280;5350;42.698;23.148;2023-04-12T10:02:54;92707.97;;;12.49;39.68
10606;BME280;5350;42.698;23.148;2023-04-12T10:05:22;92703.72;;;12.56;39.13
10606;BME280;5350;42.698;23.148;2023-04-12T10:07:51;92702.56;;;12.66;40.68
10606;BME280;5350;42.698;23.148;2023-04-12T10:10:18;92687.41;;;12.75;39.31
10606;BME280;5350;42.698;23.148;2023-04-12T10:12:47;92688.56;;;12.86;39.99
10606;BME280;5350;42.698;23.148;2023-04-12T10:15:15;92687.16;;;12.89;38.53
10606;BME280;5350;42.698;23.148;2023-04-12T10:17:44;92698.13;;;13.11;39.29
10606;BME280;5350;42.698;23.148;2023-04-12T10:20:11;92671.84;;;12.82;38.40
10606;BME280;5350;42.698;23.148;2023-04-12T10:22:39;92696.59;;;12.90;39.11
10606;BME280;5350;42.698;23.148;2023-04-12T10:25:09;92680.03;;;12.68;37.85
10606;BME280;5350;42.698;23.148;2023-04-12T10:27:39;92677.25;;;12.65;38.90
10606;BME280;5350;42.698;23.148;2023-04-12T10:30:22;92700.69;;;12.46;38.30
10606;BME280;5350;42.698;23.148;2023-04-12T10:33:10;92689.63;;;12.52;37.12
10606;BME280;5350;42.698;23.148;2023-04-12T10:35:58;92683.19;;;12.41;37.46
10606;BME280;5350;42.698;23.148;2023-04-12T10:38:27;92692.44;;;12.27;37.38
10606;BME280;5350;42.698;23.148;2023-04-12T10:41:17;92689.25;;;12.42;35.80
10606;BME280;5350;42.698;23.148;2023-04-12T10:43:45;92689.41;;;12.45;35.99
10606;BME280;5350;42.698;23.148;2023-04-12T10:49:14;92689.53;;;13.14;35.29
10606;BME280;5350;42.698;23.148;2023-04-12T10:52:12;92679.06;;;13.38;34.67
10606;BME280;5350;42.698;23.148;2023-04-12T10:54:42;92701.66;;;13.15;34.01
10606;BME280;5350;42.698;23.148;2023-04-12T10:57:43;92696.75;;;13.26;35.25
10606;BME280;5350;42.698;23.148;2023-04-12T11:00:12;92706.16;;;13.47;34.48
10606;BME280;5350;42.698;23.148;2023-04-12T11:03:06;92701.47;;;13.20;32.52
10606;BME280;5350;42.698;23.148;2023-04-12T11:05:56;92697.19;;;12.95;32.24
10606;BME280;5350;42.698;23.148;2023-04-12T11:08:25;92723.66;;;12.66;29.85
10606;BME280;5350;42.698;23.148;2023-04-12T11:10:58;92758.00;;;12.37;29.72
10606;BME280;5350;42.698;23.148;2023-04-12T11:13:25;92702.81;;;12.52;30.14
10606;BME280;5350;42.698;23.148;2023-04-12T11:15:53;92710.84;;;12.56;29.26
10606;BME280;5350;42.698;23.148;2023-04-12T11:18:21;92712.38;;;12.77;29.24
10606;BME280;5350;42.698;23.148;2023-04-12T11:20:49;92690.47;;;12.65;29.21
10606;BME280;5350;42.698;23.148;2023-04-12T11:23:18;92677.06;;;13.03;28.51
10606;BME280;5350;42.698;23.148;2023-04-12T11:25:50;92673.06;;;13.17;28.66
10606;BME280;5350;42.698;23.148;2023-04-12T11:28:18;92667.59;;;13.22;29.63
10606;BME280;5350;42.698;23.148;2023-04-12T11:30:50;92675.09;;;13.32;29.64
10606;BME280;5350;42.698;23.148;2023-04-12T11:33:33;92689.00;;;13.66;28.49
10606;BME280;5350;42.698;23.148;2023-04-12T11:36:04;92678.66;;;13.85;26.84
10606;BME280;5350;42.698;23.148;2023-04-12T11:38:33;92691.63;;;13.66;27.30
10606;BME280;5350;42.698;23.148;2023-04-12T11:41:04;92678.22;;;13.83;28.74
10606;BME280;5350;42.698;23.148;2023-04-12T11:43:31;92709.59;;;13.84;29.56
10606;BME280;5350;42.698;23.148;2023-04-12T11:45:59;92684.91;;;13.92;28.69
10606;BME280;5350;42.698;23.148;2023-04-12T11:48:26;92695.59;;;13.84;29.21
10606;BME280;5350;42.698;23.148;2023-04-12T11:50:53;92699.34;;;14.07;29.58
10606;BME280;5350;42.698;23.148;2023-04-12T11:53:26;92699.97;;;14.28;29.57
10606;BME280;5350;42.698;23.148;2023-04-12T11:55:55;92694.69;;;14.16;27.95
10606;BME280;5350;42.698;23.148;2023-04-12T11:58:25;92696.03;;;14.22;29.47
10606;BME280;5350;42.698;23.148;2023-04-12T12:00:52;92687.00;;;14.35;29.10
10606;BME280;5350;42.698;23.148;2023-04-12T12:03:20;92703.28;;;14.13;29.45
10606;BME280;5350;42.698;23.148;2023-04-12T12:05:48;92691.84;;;13.85;30.27
10606;BME280;5350;42.698;23.148;2023-04-12T12:08:15;92700.00;;;13.80;30.10
10606;BME280;5350;42.698;23.148;2023-04-12T12:10:43;92700.00;;;13.92;30.55
10606;BME280;5350;42.698;23.148;2023-04-12T12:13:11;92695.59;;;14.08;30.67
10606;BME280;5350;42.698;23.148;2023-04-12T12:15:42;92693.13;;;14.27;29.93
10606;BME280;5350;42.698;23.148;2023-04-12T12:18:10;92681.38;;;14.00;30.51
10606;BME280;5350;42.698;23.148;2023-04-12T12:20:40;92675.84;;;14.17;30.54
10606;BME280;5350;42.698;23.148;2023-04-12T12:23:07;92683.22;;;14.24;29.60
10606;BME280;5350;42.698;23.148;2023-04-12T12:25:34;92694.03;;;14.07;29.28
10606;BME280;5350;42.698;23.148;2023-04-12T12:28:01;92678.50;;;14.17;29.46
10606;BME280;5350;42.698;23.148;2023-04-12T12:30:29;92676.06;;;14.36;29.90
10606;BME280;5350;42.698;23.148;2023-04-12T12:32:58;92676.06;;;14.36;31.06
10606;BME280;5350;42.698;23.148;2023-04-12T12:35:24;92704.81;;;14.26;31.26
10606;BME280;5350;42.698;23.148;2023-04-12T12:37:54;92680.16;;;14.22;30.87
10606;BME280;5350;42.698;23.148;2023-04-12T12:40:30;92675.38;;;14.52;30.94
10606;BME280;5350;42.698;23.148;2023-04-12T12:42:57;92676.84;;;14.37;30.73
10606;BME280;5350;42.698;23.148;2023-04-12T12:45:26;92708.13;;;14.47;30.18
10606;BME280;5350;42.698;23.148;2023-04-12T12:47:54;92685.53;;;14.77;29.35
10606;BME280;5350;42.698;23.148;2023-04-12T12:50:25;92675.72;;;15.05;29.75
10606;BME280;5350;42.698;23.148;2023-04-12T12:52:53;92681.59;;;14.99;29.08
10606;BME280;5350;42.698;23.148;2023-04-12T12:55:21;92669.22;;;14.75;29.17
10606;BME280;5350;42.698;23.148;2023-04-12T12:57:50;92680.94;;;14.74;29.53
10606;BME280;5350;42.698;23.148;2023-04-12T13:00:18;92676.16;;;14.80;29.48
10606;BME280;5350;42.698;23.148;2023-04-12T13:02:45;92688.44;;;14.72;29.69
10606;BME280;5350;42.698;23.148;2023-04-12T13:05:12;92691.81;;;14.73;30.53
10606;BME280;5350;42.698;23.148;2023-04-12T13:07:41;92674.72;;;14.82;30.36
10606;BME280;5350;42.698;23.148;2023-04-12T13:10:08;92681.19;;;15.12;30.62
10606;BME280;5350;42.698;23.148;2023-04-12T13:12:35;92680.59;;;15.03;29.85